Time;durP1;ratioP1;P1;durP2;ratioP2;P2;SDS_P1;SDS_P2;PMS_P1;PMS_P2;Temp;Humidity;BMP_temperature;BMP_pressure;BME280_temperature;BME280_humidity;BME280_pressure;Samples;Min_cycle;Max_cycle;Signal;HPM_P1;HPM_P2
2024/01/26 00:02:04;;;;;;;51.00;27.80;;;9.30;94.40;;;;;;5117206;27;20035;-87
2024/01/26 00:04:30;;;;;;;50.70;26.65;;;9.30;94.40;;;;;;5113459;27;20498;-87
2024/01/26 00:06:56;;;;;;;48.63;26.85;;;9.30;94.50;;;;;;5121719;27;20027;-86
2024/01/26 00:09:21;;;;;;;45.47;27.73;;;9.30;94.50;;;;;;5123430;27;20040;-85
2024/01/26 00:11:47;;;;;;;55.47;27.70;;;9.40;94.50;;;;;;5127913;27;20080;-85
2024/01/26 00:14:13;;;;;;;46.22;25.98;;;9.40;94.50;;;;;;5124347;27;20035;-85
2024/01/26 00:16:38;;;;;;;47.00;27.00;;;9.40;94.50;;;;;;5119630;27;20039;-85
2024/01/26 00:19:05;;;;;;;52.33;27.17;;;9.40;94.50;;;;;;5117210;27;20035;-86
2024/01/26 00:21:31;;;;;;;50.20;26.02;;;9.40;94.50;;;;;;5118765;27;20046;-85
2024/01/26 00:23:57;;;;;;;47.45;26.77;;;9.40;94.50;;;;;;5127025;27;20035;-85
2024/01/26 00:26:23;;;;;;;54.90;28.02;;;10.20;94.70;;;;;;5119758;27;20042;-85
2024/01/26 00:28:48;;;;;;;48.35;27.75;;;9.40;94.50;;;;;;5118667;27;20550;-85
2024/01/26 00:31:18;;;;;;;50.35;28.15;;;9.60;94.50;;;;;;5122771;27;20042;-85
2024/01/26 00:33:45;;;;;;;45.33;26.02;;;9.40;94.50;;;;;;5105654;27;20031;-85
2024/01/26 00:36:12;;;;;;;45.45;25.10;;;9.40;94.50;;;;;;5108587;27;20406;-86
2024/01/26 00:38:37;;;;;;;47.88;26.73;;;9.40;94.50;;;;;;5127206;27;20524;-87
2024/01/26 00:41:03;;;;;;;47.95;26.38;;;9.40;94.50;;;;;;5124948;27;20043;-86
2024/01/26 00:43:29;;;;;;;50.33;27.25;;;9.50;94.50;;;;;;5127192;27;20062;-86
2024/01/26 00:45:54;;;;;;;40.65;25.25;;;9.90;94.60;;;;;;5123654;27;20066;-86
2024/01/26 00:48:21;;;;;;;43.53;25.00;;;9.50;94.50;;;;;;5121295;27;20036;-87
2024/01/26 00:50:49;;;;;;;41.28;24.48;;;9.50;94.50;;;;;;5122785;27;20046;-86
2024/01/26 00:53:16;;;;;;;40.40;25.05;;;9.50;94.50;;;;;;5122572;27;20035;-87
2024/01/26 00:55:41;;;;;;;46.60;25.60;;;9.50;94.50;;;;;;5125783;27;20031;-87
2024/01/26 00:58:07;;;;;;;40.53;25.08;;;9.50;94.50;;;;;;5118584;27;20485;-85
2024/01/26 01:00:32;;;;;;;42.88;24.52;;;9.50;94.50;;;;;;5115680;27;20047;-85
2024/01/26 01:02:58;;;;;;;39.38;24.65;;;9.50;94.50;;;;;;5123566;27;20084;-85
2024/01/26 01:05:24;;;;;;;41.72;24.00;;;9.50;94.50;;;;;;5112410;28;20388;-85
2024/01/26 01:07:50;;;;;;;40.00;23.67;;;9.50;94.50;;;;;;5124903;27;20039;-85
2024/01/26 01:10:16;;;;;;;40.95;23.70;;;9.50;94.50;;;;;;5122654;27;20485;-85
2024/01/26 01:12:42;;;;;;;35.67;21.50;;;10.20;94.70;;;;;;5123052;27;20039;-84
2024/01/26 01:15:14;;;;;;;38.95;22.85;;;9.50;94.50;;;;;;5126217;27;20059;-85
2024/01/26 01:17:44;;;;;;;36.20;22.80;;;9.50;94.50;;;;;;5136543;27;20035;-85
2024/01/26 01:20:13;;;;;;;39.33;23.10;;;9.60;94.50;;;;;;5115758;27;20452;-86
2024/01/26 01:22:47;;;;;;;38.78;23.05;;;9.60;94.50;;;;;;5114961;27;20036;-86
2024/01/26 01:25:13;;;;;;;38.78;23.23;;;10.10;94.60;;;;;;5115500;27;20042;-86
2024/01/26 01:27:39;;;;;;;40.47;24.13;;;9.60;94.50;;;;;;5122465;27;20122;-86
2024/01/26 01:30:06;;;;;;;33.33;22.63;;;9.60;94.50;;;;;;5123458;27;20039;-86
2024/01/26 01:32:32;;;;;;;38.72;23.20;;;9.60;94.50;;;;;;5124727;27;20039;-86
2024/01/26 01:34:57;;;;;;;40.67;24.52;;;9.60;94.50;;;;;;5122231;27;20054;-86
2024/01/26 01:37:23;;;;;;;42.40;25.38;;;9.90;94.60;;;;;;5149434;27;20055;-86
2024/01/26 01:39:49;;;;;;;43.97;25.02;;;9.60;94.50;;;;;;5124380;27;20448;-85
2024/01/26 01:42:15;;;;;;;40.35;25.13;;;9.60;94.50;;;;;;5113705;27;20027;-85
2024/01/26 01:44:41;;;;;;;41.00;25.33;;;9.70;94.50;;;;;;5120468;27;20097;-85
2024/01/26 01:47:09;;;;;;;38.97;24.25;;;9.60;94.50;;;;;;5123673;27;20031;-86
2024/01/26 01:49:35;;;;;;;41.95;25.35;;;9.60;94.50;;;;;;5116615;27;20105;-85
2024/01/26 01:52:03;;;;;;;39.20;24.33;;;9.60;94.40;;;;;;5120908;27;20043;-85
2024/01/26 01:54:30;;;;;;;39.30;25.42;;;9.60;94.50;;;;;;5120921;27;20524;-85
2024/01/26 01:56:57;;;;;;;38.05;24.50;;;9.60;94.40;;;;;;5108224;28;20031;-85
2024/01/26 01:59:23;;;;;;;42.30;24.73;;;9.60;94.40;;;;;;5117478;27;20038;-85
2024/01/26 02:01:50;;;;;;;39.42;23.92;;;9.70;94.40;;;;;;5123155;27;20075;-85
2024/01/26 02:04:16;;;;;;;34.92;23.20;;;9.60;94.40;;;;;;5104508;28;20085;-87
2024/01/26 02:06:41;;;;;;;37.17;23.35;;;9.60;94.40;;;;;;5105934;27;20031;-87
2024/01/26 02:09:07;;;;;;;34.88;22.30;;;9.60;94.30;;;;;;5121731;27;20035;-87
2024/01/26 02:11:32;;;;;;;34.53;22.67;;;9.60;94.30;;;;;;5122047;27;20108;-87
2024/01/26 02:13:59;;;;;;;32.97;22.35;;;9.60;94.50;;;;;;5125042;27;20400;-87
2024/01/26 02:16:25;;;;;;;32.15;21.38;;;9.90;94.40;;;;;;5122027;27;20036;-87
2024/01/26 02:18:50;;;;;;;33.60;22.33;;;9.70;94.30;;;;;;5122086;27;20039;-87
2024/01/26 02:21:16;;;;;;;31.58;21.25;;;9.60;94.30;;;;;;5116359;27;20126;-87
2024/01/26 02:23:43;;;;;;;28.98;20.30;;;9.60;94.30;;;;;;5124811;27;20088;-87
2024/01/26 02:26:09;;;;;;;35.85;23.13;;;9.60;94.30;;;;;;5113676;28;20039;-87
2024/01/26 02:28:36;;;;;;;32.53;21.63;;;9.60;94.30;;;;;;5118505;27;20032;-87
2024/01/26 02:31:01;;;;;;;33.38;20.92;;;10.20;94.50;;;;;;5106088;27;20077;-87
2024/01/26 02:33:27;;;;;;;33.80;22.38;;;9.70;94.30;;;;;;5121327;27;20039;-87
2024/01/26 02:35:53;;;;;;;30.08;20.67;;;9.60;94.30;;;;;;5118683;27;20036;-85
2024/01/26 02:38:19;;;;;;;26.77;19.60;;;9.70;94.30;;;;;;5123726;27;20130;-85
2024/01/26 02:40:46;;;;;;;27.38;19.20;;;9.70;94.30;;;;;;5121427;27;20043;-85
2024/01/26 02:43:12;;;;;;;26.85;19.15;;;9.70;94.30;;;;;;5115621;27;20107;-86
2024/01/26 02:45:37;;;;;;;30.67;21.00;;;9.70;94.30;;;;;;5116899;27;20686;-85
2024/01/26 02:48:03;;;;;;;26.75;19.15;;;9.70;94.30;;;;;;5132089;27;20525;-85
2024/01/26 02:50:29;;;;;;;28.25;19.90;;;9.70;94.30;;;;;;5120325;27;20072;-85
2024/01/26 02:52:55;;;;;;;27.17;19.80;;;9.70;94.30;;;;;;5119976;27;20047;-85
2024/01/26 02:55:20;;;;;;;26.73;18.95;;;9.70;94.30;;;;;;5116560;27;20047;-85
2024/01/26 02:57:46;;;;;;;28.75;19.63;;;9.70;94.30;;;;;;5124391;27;20501;-86
2024/01/26 03:00:12;;;;;;;28.30;18.95;;;9.80;94.30;;;;;;5099392;28;20039;-86
2024/01/26 03:02:38;;;;;;;27.38;18.45;;;9.70;94.20;;;;;;5116920;27;20043;-86
2024/01/26 03:05:04;;;;;;;25.05;17.55;;;9.70;94.30;;;;;;5124173;27;20038;-86
2024/01/26 03:07:29;;;;;;;27.58;19.35;;;9.70;94.20;;;;;;5120317;27;20042;-86
2024/01/26 03:09:55;;;;;;;26.27;18.42;;;9.70;94.30;;;;;;5121639;27;20043;-86
2024/01/26 03:12:20;;;;;;;26.15;18.08;;;9.70;94.20;;;;;;5117615;27;20463;-87
2024/01/26 03:14:46;;;;;;;24.88;17.70;;;9.70;94.20;;;;;;5124088;27;20039;-87
2024/01/26 03:17:11;;;;;;;25.05;17.65;;;9.80;94.30;;;;;;5123495;27;20099;-87
2024/01/26 03:19:37;;;;;;;24.65;16.70;;;9.80;94.30;;;;;;5122958;27;20546;-86
2024/01/26 03:22:03;;;;;;;26.90;17.95;;;9.80;94.30;;;;;;5116574;28;20062;-86
2024/01/26 03:24:29;;;;;;;27.17;18.23;;;9.80;94.30;;;;;;5115790;28;20027;-87
2024/01/26 03:26:54;;;;;;;23.02;17.65;;;10.60;94.50;;;;;;5117675;28;20122;-87
2024/01/26 03:29:20;;;;;;;25.48;17.40;;;9.80;94.30;;;;;;5121473;27;20502;-86
2024/01/26 03:31:46;;;;;;;26.13;18.42;;;9.80;94.30;;;;;;5116916;28;20042;-86
2024/01/26 03:34:12;;;;;;;26.67;18.33;;;9.80;94.30;;;;;;5119742;28;20043;-86
2024/01/26 03:36:37;;;;;;;26.77;18.52;;;9.90;94.30;;;;;;5128170;27;20104;-86
2024/01/26 03:39:03;;;;;;;28.02;19.23;;;9.90;94.30;;;;;;5109464;28;20039;-86
2024/01/26 03:41:29;;;;;;;29.80;18.42;;;9.90;94.40;;;;;;5125096;27;20032;-87
2024/01/26 03:43:55;;;;;;;28.08;19.23;;;9.90;94.40;;;;;;5119582;27;20047;-87
2024/01/26 03:46:21;;;;;;;28.38;18.30;;;9.90;94.40;;;;;;5125915;27;20035;-85
2024/01/26 03:48:48;;;;;;;27.85;19.27;;;9.90;94.40;;;;;;5107930;27;20039;-86
2024/01/26 03:51:13;;;;;;;27.10;17.88;;;9.90;94.40;;;;;;5126214;27;20035;-87
2024/01/26 03:53:39;;;;;;;26.50;18.75;;;9.90;94.40;;;;;;5123754;27;20042;-87
2024/01/26 03:56:05;;;;;;;29.83;19.23;;;10.00;94.40;;;;;;5127502;27;20035;-86
2024/01/26 03:58:30;;;;;;;26.67;17.73;;;10.00;94.40;;;;;;5136708;27;20121;-86
2024/01/26 04:00:56;;;;;;;26.90;18.38;;;10.00;94.40;;;;;;5124375;27;20035;-86
2024/01/26 04:03:22;;;;;;;25.98;17.67;;;10.00;94.40;;;;;;5134716;27;20047;-86
2024/01/26 04:05:47;;;;;;;25.40;16.85;;;10.00;94.40;;;;;;5127143;27;20378;-86
2024/01/26 04:08:13;;;;;;;29.75;17.85;;;10.00;94.50;;;;;;5124880;27;20062;-86
2024/01/26 04:10:39;;;;;;;26.73;17.08;;;10.20;94.50;;;;;;5122105;27;20446;-86
2024/01/26 04:13:05;;;;;;;26.60;17.35;;;10.10;94.50;;;;;;5107613;27;20040;-85
2024/01/26 04:15:31;;;;;;;24.88;16.40;;;10.10;94.50;;;;;;5124434;27;20039;-86
2024/01/26 04:17:57;;;;;;;24.70;16.20;;;10.10;94.50;;;;;;5120205;27;20039;-85
2024/01/26 04:20:23;;;;;;;23.73;15.57;;;10.10;94.50;;;;;;5107886;27;20049;-85
2024/01/26 04:22:49;;;;;;;25.85;15.95;;;10.00;94.50;;;;;;5123350;27;20040;-85
2024/01/26 04:25:14;;;;;;;22.00;15.38;;;10.10;94.60;;;;;;5123780;27;20028;-86
2024/01/26 04:27:40;;;;;;;22.25;16.08;;;10.10;94.60;;;;;;5124265;27;20035;-86
2024/01/26 04:30:06;;;;;;;24.13;16.02;;;10.10;94.60;;;;;;5122404;27;20036;-86
2024/01/26 04:32:32;;;;;;;25.00;16.35;;;10.20;94.60;;;;;;5101671;27;20077;-86
2024/01/26 04:34:57;;;;;;;22.25;15.73;;;10.20;94.60;;;;;;5124309;27;20059;-87
2024/01/26 04:37:23;;;;;;;22.83;14.93;;;10.20;94.60;;;;;;5121968;27;20056;-86
2024/01/26 04:39:50;;;;;;;23.48;17.05;;;10.20;94.60;;;;;;5127153;27;20051;-85
2024/01/26 04:42:16;;;;;;;22.27;16.50;;;10.20;94.60;;;;;;5122486;27;20060;-85
2024/01/26 04:44:44;;;;;;;23.23;17.35;;;10.20;94.60;;;;;;5124015;27;20438;-84
2024/01/26 04:47:10;;;;;;;21.48;16.58;;;10.50;94.70;;;;;;5124658;27;20039;-86
2024/01/26 04:49:36;;;;;;;25.70;18.02;;;10.20;94.60;;;;;;5108564;27;20428;-86
2024/01/26 04:52:01;;;;;;;22.98;16.67;;;10.30;94.70;;;;;;5120793;27;20035;-86
2024/01/26 04:54:27;;;;;;;24.42;18.15;;;10.20;94.60;;;;;;5120294;27;20486;-86
2024/01/26 04:56:53;;;;;;;22.60;16.92;;;10.60;94.70;;;;;;5124255;27;20122;-86
2024/01/26 04:59:19;;;;;;;25.00;17.90;;;10.30;94.70;;;;;;5117766;27;20482;-87
2024/01/26 05:01:44;;;;;;;25.10;18.10;;;10.30;94.70;;;;;;5147357;27;20042;-86
2024/01/26 05:04:10;;;;;;;23.00;18.40;;;11.10;94.90;;;;;;5122797;27;20478;-86
2024/01/26 05:06:35;;;;;;;22.50;18.88;;;10.60;94.70;;;;;;5120120;27;20720;-86
2024/01/26 05:09:01;;;;;;;27.80;20.13;;;10.40;94.70;;;;;;5126509;27;20036;-86
2024/01/26 05:11:27;;;;;;;26.75;20.55;;;10.40;94.70;;;;;;5123650;27;20478;-86
2024/01/26 05:13:52;;;;;;;27.95;20.90;;;10.40;94.70;;;;;;5121536;27;20032;-85
2024/01/26 05:16:18;;;;;;;27.88;21.73;;;10.40;94.70;;;;;;5127156;27;20055;-85
2024/01/26 05:18:44;;;;;;;27.77;20.95;;;10.40;94.70;;;;;;5126228;27;20031;-86
2024/01/26 05:21:09;;;;;;;28.45;20.85;;;10.40;94.60;;;;;;5122851;27;20088;-85
2024/01/26 05:23:35;;;;;;;26.88;21.17;;;10.40;94.60;;;;;;5118277;27;20099;-85
2024/01/26 05:26:01;;;;;;;30.40;21.55;;;10.40;94.60;;;;;;5139190;27;20031;-85
2024/01/26 05:28:26;;;;;;;29.02;19.83;;;10.40;94.60;;;;;;5122376;27;20039;-85
2024/01/26 05:30:52;;;;;;;25.15;20.10;;;10.60;94.70;;;;;;5124329;27;20118;-85
2024/01/26 05:33:18;;;;;;;29.80;20.33;;;10.50;94.70;;;;;;5106834;27;20040;-85
2024/01/26 05:35:45;;;;;;;27.90;20.42;;;10.50;94.70;;;;;;5126185;27;20127;-85
2024/01/26 05:38:11;;;;;;;24.42;19.42;;;10.50;94.70;;;;;;5124465;27;20047;-85
2024/01/26 05:40:36;;;;;;;26.00;20.00;;;10.50;94.70;;;;;;5109285;27;20549;-85
2024/01/26 05:43:02;;;;;;;24.52;19.58;;;10.50;94.70;;;;;;5127861;27;20028;-85
2024/01/26 05:45:28;;;;;;;26.90;19.55;;;10.50;94.70;;;;;;5125407;27;20532;-85
2024/01/26 05:47:53;;;;;;;29.50;19.70;;;10.60;94.70;;;;;;5120332;27;20386;-85
2024/01/26 05:50:21;;;;;;;25.40;18.83;;;10.60;94.70;;;;;;5106527;27;20512;-85
2024/01/26 05:52:47;;;;;;;26.75;19.33;;;10.60;94.70;;;;;;5127250;27;20035;-85
2024/01/26 05:55:14;;;;;;;25.58;20.25;;;10.60;94.70;;;;;;5123437;27;20074;-86
2024/01/26 05:57:39;;;;;;;26.25;20.30;;;10.60;94.70;;;;;;5107583;27;20043;-86
2024/01/26 06:00:06;;;;;;;27.20;19.42;;;10.60;94.70;;;;;;5123199;27;20126;-85
2024/01/26 06:02:32;;;;;;;26.65;19.77;;;10.60;94.70;;;;;;5116432;27;20032;-85
2024/01/26 06:04:57;;;;;;;28.38;19.70;;;10.60;94.70;;;;;;5103323;27;20084;-85
2024/01/26 06:07:23;;;;;;;25.73;18.85;;;10.60;94.80;;;;;;5118190;28;20375;-84
2024/01/26 06:09:48;;;;;;;26.13;19.10;;;10.60;94.80;;;;;;5139705;27;20042;-84
2024/01/26 06:12:14;;;;;;;23.15;18.05;;;10.60;94.80;;;;;;5130700;27;20355;-84
2024/01/26 06:14:40;;;;;;;24.25;17.75;;;10.60;94.80;;;;;;5127579;27;20039;-84
2024/01/26 06:17:05;;;;;;;24.75;17.38;;;10.60;94.80;;;;;;5119784;27;20039;-84
2024/01/26 06:19:31;;;;;;;23.63;16.65;;;10.70;94.80;;;;;;5131665;27;20039;-84
2024/01/26 06:21:57;;;;;;;24.58;18.38;;;10.60;94.80;;;;;;5125038;27;20404;-84
2024/01/26 06:24:23;;;;;;;25.70;17.63;;;11.20;95.00;;;;;;5142645;27;20106;-85
2024/01/26 06:26:48;;;;;;;19.73;15.45;;;10.70;94.80;;;;;;5128851;27;20039;-84
2024/01/26 06:29:14;;;;;;;22.90;16.40;;;10.70;94.80;;;;;;5130606;27;20028;-84
2024/01/26 06:31:39;;;;;;;21.15;15.57;;;10.70;94.80;;;;;;5130623;27;20040;-84
2024/01/26 06:34:05;;;;;;;20.75;16.00;;;10.70;94.80;;;;;;5134692;27;20118;-84
2024/01/26 06:36:30;;;;;;;20.95;15.10;;;10.80;94.90;;;;;;5112805;28;20031;-83
2024/01/26 06:38:56;;;;;;;21.15;15.18;;;11.10;95.00;;;;;;5116884;27;20042;-84
2024/01/26 06:41:22;;;;;;;20.67;14.40;;;10.70;94.90;;;;;;5121178;27;20047;-85
2024/01/26 06:43:53;;;;;;;18.17;13.82;;;10.80;94.90;;;;;;5123628;27;20031;-85
2024/01/26 06:46:21;;;;;;;18.92;13.88;;;10.80;94.90;;;;;;5121936;27;20063;-86
2024/01/26 06:48:48;;;;;;;22.88;14.85;;;10.80;94.90;;;;;;5106491;27;20497;-86
2024/01/26 06:51:14;;;;;;;19.20;13.52;;;10.80;94.90;;;;;;5103140;27;20046;-85
2024/01/26 06:53:39;;;;;;;17.80;14.18;;;10.80;95.10;;;;;;5104522;28;20039;-86
2024/01/26 06:56:06;;;;;;;19.40;13.75;;;10.80;94.90;;;;;;5119350;27;20410;-85
2024/01/26 06:58:31;;;;;;;19.60;13.07;;;10.80;94.90;;;;;;5123161;27;20047;-86
2024/01/26 07:00:58;;;;;;;16.20;12.48;;;10.80;94.90;;;;;;5107057;27;20035;-87
2024/01/26 07:03:24;;;;;;;13.60;11.57;;;10.80;94.90;;;;;;5121096;27;20043;-87
2024/01/26 07:05:50;;;;;;;13.90;11.65;;;11.30;95.20;;;;;;5122060;27;20110;-86
2024/01/26 07:08:16;;;;;;;13.68;11.50;;;11.00;95.00;;;;;;5118382;27;20096;-87
2024/01/26 07:10:42;;;;;;;14.68;11.00;;;10.80;94.90;;;;;;5123926;27;20035;-87
2024/01/26 07:13:07;;;;;;;13.75;10.45;;;10.80;94.90;;;;;;5125287;27;20035;-87
2024/01/26 07:15:33;;;;;;;12.77;10.45;;;10.80;94.90;;;;;;5123137;27;20071;-89
2024/01/26 07:17:58;;;;;;;13.68;10.10;;;10.80;94.90;;;;;;5113780;28;20092;-87
2024/01/26 07:20:24;;;;;;;15.45;10.32;;;10.90;95.00;;;;;;5117798;27;20450;-87
2024/01/26 07:22:50;;;;;;;10.15;8.13;;;10.90;95.00;;;;;;5121409;28;20044;-87
2024/01/26 07:25:19;;;;;;;15.50;8.75;;;11.10;95.00;;;;;;5107072;28;20047;-87
2024/01/26 07:27:48;;;;;;;11.45;8.52;;;10.80;95.00;;;;;;5116346;28;20046;-87
2024/01/26 07:30:15;;;;;;;12.00;9.27;;;10.90;95.00;;;;;;5104297;28;20784;-87
2024/01/26 07:32:41;;;;;;;11.63;8.45;;;10.90;95.00;;;;;;5118011;28;20039;-87
2024/01/26 07:35:07;;;;;;;11.25;8.48;;;10.90;95.00;;;;;;5101466;28;20032;-87
2024/01/26 07:37:33;;;;;;;11.23;8.32;;;10.90;95.00;;;;;;5120751;28;20051;-87
2024/01/26 07:40:01;;;;;;;11.55;7.95;;;10.90;95.00;;;;;;5105796;28;20043;-87
2024/01/26 07:42:26;;;;;;;10.88;8.02;;;10.90;95.00;;;;;;5124247;28;20039;-88
2024/01/26 07:44:52;;;;;;;9.35;7.75;;;11.00;95.00;;;;;;5116722;28;20113;-87
2024/01/26 07:47:18;;;;;;;10.85;7.72;;;11.70;95.20;;;;;;5120983;28;20035;-87
2024/01/26 07:49:43;;;;;;;10.90;7.47;;;10.90;95.00;;;;;;5102228;28;20047;-87
2024/01/26 07:52:09;;;;;;;10.07;8.05;;;10.90;95.00;;;;;;5107223;28;20046;-87
2024/01/26 07:54:35;;;;;;;11.52;8.10;;;10.90;95.00;;;;;;5117829;28;20047;-88
2024/01/26 07:57:00;;;;;;;10.63;7.57;;;10.90;95.00;;;;;;5105051;28;20046;-87
2024/01/26 07:59:26;;;;;;;9.32;8.32;;;10.90;95.00;;;;;;5118715;28;20096;-87
2024/01/26 08:01:52;;;;;;;10.50;7.90;;;10.90;95.00;;;;;;5106739;28;20043;-87
2024/01/26 08:04:17;;;;;;;12.10;8.25;;;11.00;95.10;;;;;;5105307;28;20105;-87
2024/01/26 08:06:43;;;;;;;10.88;8.40;;;11.00;95.10;;;;;;5103647;28;20038;-88
2024/01/26 08:09:10;;;;;;;11.65;8.43;;;10.90;95.10;;;;;;5120821;28;20027;-87
2024/01/26 08:11:36;;;;;;;11.00;9.27;;;10.90;95.00;;;;;;5119971;27;20110;-88
2024/01/26 08:14:02;;;;;;;12.73;9.52;;;10.90;95.10;;;;;;5086861;28;20116;-88
2024/01/26 08:16:28;;;;;;;14.35;10.10;;;11.10;95.10;;;;;;5102997;28;20516;-88
2024/01/26 08:18:53;;;;;;;14.10;10.27;;;11.10;95.20;;;;;;5105553;28;20444;-87
2024/01/26 08:21:19;;;;;;;12.65;10.80;;;11.20;95.20;;;;;;5114269;27;20031;-87
2024/01/26 08:23:46;;;;;;;15.45;12.50;;;11.00;95.10;;;;;;5133346;27;20043;-88
2024/01/26 08:26:12;;;;;;;13.75;11.57;;;11.70;95.40;;;;;;5116312;28;20530;-88
2024/01/26 08:28:37;;;;;;;16.00;11.75;;;11.00;95.10;;;;;;5112624;27;20042;-88
2024/01/26 08:31:05;;;;;;;16.67;13.00;;;11.00;95.20;;;;;;5125872;27;20122;-88
2024/01/26 08:33:30;;;;;;;15.93;12.75;;;11.50;95.30;;;;;;5125057;27;20044;-87
2024/01/26 08:35:56;;;;;;;16.27;12.70;;;11.40;95.30;;;;;;5128956;27;20125;-87
2024/01/26 08:38:22;;;;;;;13.43;11.68;;;11.80;95.40;;;;;;5126695;27;20090;-87
2024/01/26 08:40:47;;;;;;;17.13;11.45;;;11.60;95.30;;;;;;5128302;28;20031;-88
2024/01/26 08:43:13;;;;;;;16.65;11.73;;;11.30;95.20;;;;;;5144348;27;20034;-87
2024/01/26 08:45:38;;;;;;;13.60;11.18;;;11.10;95.20;;;;;;5129843;27;20039;-88
2024/01/26 08:48:05;;;;;;;15.15;11.85;;;11.10;95.20;;;;;;5124677;27;20088;-88
2024/01/26 08:50:30;;;;;;;19.17;11.65;;;11.10;95.20;;;;;;5126707;27;20533;-87
2024/01/26 08:52:56;;;;;;;12.93;9.43;;;11.10;95.20;;;;;;5111442;27;20066;-88
2024/01/26 08:55:22;;;;;;;11.48;8.68;;;11.10;95.10;;;;;;5117017;27;20096;-86
2024/01/26 08:57:48;;;;;;;13.68;8.90;;;11.20;95.10;;;;;;5118440;27;20055;-87
2024/01/26 09:00:15;;;;;;;12.90;8.02;;;11.20;95.10;;;;;;5107173;27;20035;-88
2024/01/26 09:02:40;;;;;;;20.05;7.53;;;11.20;95.10;;;;;;5122054;27;20410;-90
2024/01/26 09:05:07;;;;;;;12.10;7.18;;;11.10;95.00;;;;;;5123884;27;20032;-89
2024/01/26 09:07:32;;;;;;;13.13;7.05;;;11.10;95.00;;;;;;5127055;27;20512;-88
2024/01/26 09:09:58;;;;;;;11.52;6.10;;;11.10;95.00;;;;;;5120061;27;20054;-88
2024/01/26 09:12:24;;;;;;;9.25;5.05;;;11.70;95.10;;;;;;5128792;27;20501;-89
2024/01/26 09:14:49;;;;;;;12.18;5.78;;;11.60;95.00;;;;;;5109171;27;20043;-89
2024/01/26 09:17:16;;;;;;;11.38;4.05;;;11.10;94.80;;;;;;5109368;27;20258;-88
2024/01/26 09:19:44;;;;;;;5.85;2.03;;;11.10;94.70;;;;;;5143292;27;20050;-88
2024/01/26 09:22:10;;;;;;;4.32;1.17;;;11.00;94.40;;;;;;5122530;27;20030;-86
2024/01/26 09:24:36;;;;;;;3.47;1.17;;;11.00;94.10;;;;;;5099887;27;20063;-87
2024/01/26 09:27:01;;;;;;;4.32;1.02;;;10.90;93.90;;;;;;5114449;28;20035;-87
2024/01/26 09:29:27;;;;;;;4.72;1.17;;;10.80;93.80;;;;;;5108953;27;20114;-88
2024/01/26 09:31:56;;;;;;;4.45;1.08;;;10.60;93.30;;;;;;5106250;28;20039;-87
2024/01/26 09:34:22;;;;;;;5.28;0.98;;;10.50;93.10;;;;;;5107354;27;20036;-87
2024/01/26 09:36:48;;;;;;;5.15;1.05;;;10.50;93.00;;;;;;5123855;27;20081;-87
2024/01/26 09:39:13;;;;;;;5.35;0.90;;;10.40;92.80;;;;;;5122523;27;20509;-88
2024/01/26 09:41:39;;;;;;;6.38;1.15;;;10.30;92.50;;;;;;5122686;27;20035;-88
2024/01/26 09:44:05;;;;;;;5.60;0.90;;;10.30;92.30;;;;;;5122339;27;20138;-87
2024/01/26 09:46:31;;;;;;;9.00;1.27;;;10.20;92.00;;;;;;5108705;27;20035;-87
2024/01/26 09:48:57;;;;;;;8.30;1.63;;;10.30;91.80;;;;;;5123374;27;20489;-87
2024/01/26 09:51:25;;;;;;;6.50;1.23;;;10.10;91.60;;;;;;5117776;27;20073;-88
2024/01/26 09:53:57;;;;;;;4.50;0.95;;;10.40;91.70;;;;;;5121942;27;20039;-88
2024/01/26 09:56:23;;;;;;;10.10;2.17;;;9.90;91.50;;;;;;5123848;27;20044;-88
2024/01/26 09:58:48;;;;;;;7.00;1.30;;;9.90;91.40;;;;;;5107705;27;20076;-87
2024/01/26 10:01:21;;;;;;;11.02;1.80;;;9.80;91.30;;;;;;5108039;27;20119;-87
2024/01/26 10:03:48;;;;;;;11.68;1.67;;;9.80;91.40;;;;;;5105063;27;20042;-87
2024/01/26 10:06:14;;;;;;;8.38;1.60;;;9.80;91.20;;;;;;5122188;27;20371;-87
2024/01/26 10:08:40;;;;;;;8.48;1.50;;;9.70;91.20;;;;;;5103612;28;20058;-87
2024/01/26 10:11:06;;;;;;;8.70;1.85;;;9.70;91.20;;;;;;5105252;28;20439;-87
2024/01/26 10:13:32;;;;;;;13.88;2.55;;;9.70;91.30;;;;;;5104858;27;20035;-87
2024/01/26 10:16:09;;;;;;;11.60;2.42;;;9.60;91.10;;;;;;5119504;27;20119;-87
2024/01/26 10:18:45;;;;;;;10.27;2.05;;;9.60;91.00;;;;;;5106090;27;20035;-87
2024/01/26 10:21:12;;;;;;;15.13;2.95;;;9.60;90.90;;;;;;5122000;27;20040;-88
2024/01/26 10:23:38;;;;;;;13.07;2.28;;;9.50;90.90;;;;;;5122082;27;20521;-88
2024/01/26 10:26:03;;;;;;;14.10;2.92;;;9.50;90.80;;;;;;5117309;27;20036;-89
2024/01/26 10:28:29;;;;;;;18.23;2.78;;;9.50;90.80;;;;;;5104286;27;20236;-88
2024/01/26 10:30:55;;;;;;;13.45;2.80;;;9.50;90.80;;;;;;5106876;27;20043;-87
2024/01/26 10:33:24;;;;;;;12.50;2.28;;;9.40;90.90;;;;;;5104413;27;20036;-89
2024/01/26 10:35:56;;;;;;;14.52;3.47;;;9.40;90.50;;;;;;5105878;28;20043;-88
2024/01/26 10:38:23;;;;;;;15.80;2.90;;;9.40;90.30;;;;;;5119776;27;20112;-89
2024/01/26 10:40:51;;;;;;;11.80;2.30;;;9.40;90.20;;;;;;5120163;27;20044;-89
2024/01/26 10:43:18;;;;;;;16.50;3.72;;;9.30;90.00;;;;;;5134400;27;20405;-89
2024/01/26 10:45:44;;;;;;;15.00;2.67;;;9.30;90.00;;;;;;5127787;27;20050;-85
2024/01/26 10:48:11;;;;;;;16.75;3.05;;;9.30;89.80;;;;;;5128459;27;20031;-85
2024/01/26 10:50:37;;;;;;;17.58;2.83;;;9.30;89.60;;;;;;5130352;27;20043;-85
2024/01/26 10:53:06;;;;;;;15.70;3.75;;;9.30;89.70;;;;;;5122243;27;20063;-84
2024/01/26 10:55:31;;;;;;;13.38;2.92;;;9.30;89.20;;;;;;5106000;28;20397;-84
2024/01/26 10:58:01;;;;;;;15.07;3.67;;;9.30;88.60;;;;;;5126068;27;20095;-84
2024/01/26 11:00:27;;;;;;;15.88;3.42;;;9.30;88.60;;;;;;5127128;27;20034;-84
2024/01/26 11:02:53;;;;;;;18.25;4.57;;;9.30;88.10;;;;;;5129985;27;20406;-84
2024/01/26 11:05:18;;;;;;;16.58;4.45;;;9.30;87.40;;;;;;5110955;27;20043;-84
2024/01/26 11:07:44;;;;;;;13.48;2.53;;;9.20;87.30;;;;;;5127432;27;20050;-84
2024/01/26 11:10:16;;;;;;;22.60;3.80;;;9.80;87.40;;;;;;5124307;28;20035;-84
2024/01/26 11:12:42;;;;;;;13.00;2.70;;;9.20;86.70;;;;;;5131454;27;20058;-84
2024/01/26 11:15:09;;;;;;;19.77;3.95;;;9.20;86.70;;;;;;5112529;27;20519;-85
2024/01/26 11:17:50;;;;;;;17.08;3.88;;;9.20;87.20;;;;;;5123921;27;20038;-84
2024/01/26 11:20:32;;;;;;;23.23;4.15;;;9.20;86.70;;;;;;5124822;27;20047;-84
2024/01/26 11:22:59;;;;;;;23.58;4.43;;;9.20;86.40;;;;;;5121360;27;20413;-84
2024/01/26 11:25:25;;;;;;;20.50;3.92;;;9.20;86.70;;;;;;5112043;27;20039;-85
2024/01/26 11:28:00;;;;;;;22.85;4.20;;;9.30;86.50;;;;;;5110530;28;20043;-84
2024/01/26 11:30:27;;;;;;;19.02;4.05;;;9.20;86.00;;;;;;5123905;28;20043;-84
2024/01/26 11:32:53;;;;;;;18.33;4.35;;;9.10;85.80;;;;;;5131263;27;20031;-84
2024/01/26 11:35:20;;;;;;;18.48;4.38;;;9.70;85.70;;;;;;5101842;28;20040;-84
2024/01/26 11:37:47;;;;;;;16.63;3.10;;;9.10;85.00;;;;;;5128841;27;20047;-84
2024/01/26 11:40:14;;;;;;;19.08;3.42;;;9.40;85.30;;;;;;5111696;28;20088;-84
2024/01/26 11:42:40;;;;;;;18.55;4.90;;;9.10;85.20;;;;;;5120143;28;20501;-85
2024/01/26 11:45:13;;;;;;;20.05;3.63;;;9.10;85.00;;;;;;5127297;28;20063;-84
2024/01/26 11:47:40;;;;;;;19.92;3.38;;;9.10;85.00;;;;;;5115660;28;20494;-83
2024/01/26 11:50:10;;;;;;;19.60;4.05;;;9.00;84.70;;;;;;5126005;27;20079;-88
2024/01/26 11:52:36;;;;;;;18.98;4.35;;;9.00;84.20;;;;;;5119778;27;20040;-88
2024/01/26 11:55:02;;;;;;;21.58;3.50;;;9.00;83.90;;;;;;5115479;28;20042;-88
2024/01/26 11:57:35;;;;;;;15.65;3.63;;;8.90;83.70;;;;;;5104111;27;20044;-87
2024/01/26 12:00:04;;;;;;;16.17;3.20;;;8.90;83.70;;;;;;5113654;27;20035;-87
2024/01/26 12:02:30;;;;;;;19.58;3.33;;;8.90;83.60;;;;;;5101550;27;20044;-87
2024/01/26 12:04:55;;;;;;;24.08;4.20;;;8.90;84.00;;;;;;5108889;28;20512;-87
2024/01/26 12:07:22;;;;;;;21.95;4.88;;;8.90;84.00;;;;;;5121016;27;20042;-87
2024/01/26 12:09:49;;;;;;;18.92;3.83;;;8.90;84.00;;;;;;5101525;27;20039;-88
2024/01/26 12:12:16;;;;;;;25.67;4.22;;;8.90;83.90;;;;;;5108557;27;20046;-88
2024/01/26 12:14:42;;;;;;;27.20;4.90;;;8.80;84.10;;;;;;5108014;27;20509;-87
2024/01/26 12:17:07;;;;;;;18.58;3.90;;;8.80;83.80;;;;;;5125969;27;20035;-86
2024/01/26 12:19:33;;;;;;;18.42;3.60;;;8.80;83.80;;;;;;5105753;27;20483;-87
2024/01/26 12:21:58;;;;;;;20.35;3.38;;;9.60;84.00;;;;;;5122619;27;20410;-87
2024/01/26 12:24:24;;;;;;;22.70;3.83;;;8.80;83.80;;;;;;5118831;27;20432;-87
2024/01/26 12:26:51;;;;;;;18.80;3.60;;;8.80;84.10;;;;;;5118548;27;20032;-86
2024/01/26 12:29:16;;;;;;;20.88;4.18;;;8.70;84.20;;;;;;5107613;27;20051;-87
2024/01/26 12:31:42;;;;;;;23.58;3.83;;;8.70;84.10;;;;;;5116045;27;20035;-86